sensor_id;sensor_type;location;lat;lon;timestamp;P1;durP1;ratioP1;P2;durP2;ratioP2
65377;SDS011;51982;51.042;13.806;2022-12-07T00:01:12;8.60;;;4.82;;
65377;SDS011;51982;51.042;13.806;2022-12-07T00:03:37;7.13;;;4.40;;
65377;SDS011;51982;51.042;13.806;2022-12-07T00:06:04;8.88;;;4.45;;
65377;SDS011;51982;51.042;13.806;2022-12-07T00:08:31;8.50;;;4.50;;
65377;SDS011;51982;51.042;13.806;2022-12-07T00:11:00;9.30;;;4.78;;
65377;SDS011;51982;51.042;13.806;2022-12-07T00:13:29;8.43;;;4.68;;
65377;SDS011;51982;51.042;13.806;2022-12-07T00:15:56;7.90;;;4.47;;
65377;SDS011;51982;51.042;13.806;2022-12-07T00:18:25;6.38;;;4.05;;
65377;SDS011;51982;51.042;13.806;2022-12-07T00:20:50;9.90;;;5.07;;
65377;SDS011;51982;51.042;13.806;2022-12-07T00:23:15;7.70;;;4.70;;
65377;SDS011;51982;51.042;13.806;2022-12-07T00:25:40;7.57;;;4.57;;
65377;SDS011;51982;51.042;13.806;2022-12-07T00:28:06;8.18;;;4.50;;
65377;SDS011;51982;51.042;13.806;2022-12-07T00:30:32;8.38;;;4.70;;
65377;SDS011;51982;51.042;13.806;2022-12-07T00:32:58;5.80;;;3.70;;
65377;SDS011;51982;51.042;13.806;2022-12-07T00:35:23;8.18;;;4.72;;
65377;SDS011;51982;51.042;13.806;2022-12-07T00:37:48;7.78;;;4.50;;
65377;SDS011;51982;51.042;13.806;2022-12-07T00:40:13;6.53;;;3.28;;
65377;SDS011;51982;51.042;13.806;2022-12-07T00:42:39;8.45;;;4.65;;
65377;SDS011;51982;51.042;13.806;2022-12-07T00:45:04;14.38;;;5.22;;
65377;SDS011;51982;51.042;13.806;2022-12-07T00:47:29;8.60;;;4.40;;
65377;SDS011;51982;51.042;13.806;2022-12-07T00:49:55;8.73;;;4.55;;
65377;SDS011;51982;51.042;13.806;2022-12-07T00:52:20;9.02;;;4.53;;
65377;SDS011;51982;51.042;13.806;2022-12-07T00:54:45;9.40;;;5.15;;
65377;SDS011;51982;51.042;13.806;2022-12-07T00:57:10;8.35;;;4.80;;
65377;SDS011;51982;51.042;13.806;2022-12-07T00:59:36;7.82;;;4.45;;
65377;SDS011;51982;51.042;13.806;2022-12-07T01:02:01;8.13;;;5.03;;
65377;SDS011;51982;51.042;13.806;2022-12-07T01:04:26;9.70;;;4.97;;
65377;SDS011;51982;51.042;13.806;2022-12-07T01:06:51;9.00;;;4.90;;
65377;SDS011;51982;51.042;13.806;2022-12-07T01:09:17;9.40;;;5.32;;
65377;SDS011;51982;51.042;13.806;2022-12-07T01:11:42;10.93;;;5.28;;
65377;SDS011;51982;51.042;13.806;2022-12-07T01:14:08;9.05;;;4.90;;
65377;SDS011;51982;51.042;13.806;2022-12-07T01:16:33;9.13;;;5.30;;
65377;SDS011;51982;51.042;13.806;2022-12-07T01:18:59;10.05;;;5.93;;
65377;SDS011;51982;51.042;13.806;2022-12-07T01:21:26;10.35;;;5.03;;
65377;SDS011;51982;51.042;13.806;2022-12-07T01:26:25;10.07;;;4.78;;
65377;SDS011;51982;51.042;13.806;2022-12-07T01:28:50;8.35;;;5.07;;
65377;SDS011;51982;51.042;13.806;2022-12-07T01:31:19;9.82;;;5.35;;
65377;SDS011;51982;51.042;13.806;2022-12-07T01:33:48;9.25;;;4.82;;
65377;SDS011;51982;51.042;13.806;2022-12-07T01:36:36;8.85;;;5.30;;
65377;SDS011;51982;51.042;13.806;2022-12-07T01:39:02;10.80;;;5.75;;
65377;SDS011;51982;51.042;13.806;2022-12-07T01:41:32;9.40;;;5.03;;
65377;SDS011;51982;51.042;13.806;2022-12-07T01:46:39;9.48;;;5.20;;
65377;SDS011;51982;51.042;13.806;2022-12-07T01:49:06;10.18;;;5.43;;
65377;SDS011;51982;51.042;13.806;2022-12-07T01:51:35;10.43;;;5.80;;
65377;SDS011;51982;51.042;13.806;2022-12-07T01:54:03;11.10;;;5.60;;
65377;SDS011;51982;51.042;13.806;2022-12-07T01:56:29;11.25;;;4.93;;
65377;SDS011;51982;51.042;13.806;2022-12-07T01:58:56;10.60;;;5.38;;
65377;SDS011;51982;51.042;13.806;2022-12-07T02:01:24;9.80;;;5.25;;
65377;SDS011;51982;51.042;13.806;2022-12-07T02:03:49;10.05;;;4.85;;
65377;SDS011;51982;51.042;13.806;2022-12-07T02:06:16;10.95;;;5.03;;
65377;SDS011;51982;51.042;13.806;2022-12-07T02:08:45;9.52;;;5.00;;
65377;SDS011;51982;51.042;13.806;2022-12-07T02:11:11;10.40;;;4.63;;
65377;SDS011;51982;51.042;13.806;2022-12-07T02:13:37;9.02;;;4.65;;
65377;SDS011;51982;51.042;13.806;2022-12-07T02:30:15;5.63;;;3.47;;
65377;SDS011;51982;51.042;13.806;2022-12-07T02:33:06;7.43;;;3.88;;
65377;SDS011;51982;51.042;13.806;2022-12-07T02:35:40;6.05;;;3.47;;
65377;SDS011;51982;51.042;13.806;2022-12-07T02:38:26;5.88;;;3.60;;
65377;SDS011;51982;51.042;13.806;2022-12-07T02:41:07;6.15;;;3.53;;
65377;SDS011;51982;51.042;13.806;2022-12-07T02:43:42;6.43;;;3.60;;
65377;SDS011;51982;51.042;13.806;2022-12-07T02:46:15;8.15;;;3.80;;
65377;SDS011;51982;51.042;13.806;2022-12-07T02:48:45;7.03;;;3.65;;
65377;SDS011;51982;51.042;13.806;2022-12-07T02:51:12;8.40;;;3.55;;
65377;SDS011;51982;51.042;13.806;2022-12-07T02:53:38;6.95;;;4.20;;
65377;SDS011;51982;51.042;13.806;2022-12-07T03:01:50;6.05;;;3.75;;
65377;SDS011;51982;51.042;13.806;2022-12-07T03:13:18;7.30;;;4.05;;
65377;SDS011;51982;51.042;13.806;2022-12-07T03:18:52;6.55;;;3.80;;
65377;SDS011;51982;51.042;13.806;2022-12-07T03:21:27;5.70;;;3.35;;
65377;SDS011;51982;51.042;13.806;2022-12-07T03:23:58;9.07;;;4.10;;
65377;SDS011;51982;51.042;13.806;2022-12-07T03:26:28;8.35;;;4.38;;
65377;SDS011;51982;51.042;13.806;2022-12-07T03:28:58;7.35;;;4.43;;
65377;SDS011;51982;51.042;13.806;2022-12-07T03:31:34;7.90;;;4.40;;
65377;SDS011;51982;51.042;13.806;2022-12-07T03:34:11;7.45;;;4.45;;
65377;SDS011;51982;51.042;13.806;2022-12-07T03:36:49;10.07;;;4.75;;
65377;SDS011;51982;51.042;13.806;2022-12-07T03:39:22;8.27;;;4.63;;
65377;SDS011;51982;51.042;13.806;2022-12-07T03:41:52;8.93;;;4.85;;
65377;SDS011;51982;51.042;13.806;2022-12-07T03:44:19;8.60;;;5.20;;
65377;SDS011;51982;51.042;13.806;2022-12-07T03:49:31;9.18;;;5.03;;
65377;SDS011;51982;51.042;13.806;2022-12-07T03:54:44;10.45;;;5.20;;
65377;SDS011;51982;51.042;13.806;2022-12-07T03:57:14;8.75;;;5.10;;
65377;SDS011;51982;51.042;13.806;2022-12-07T03:59:41;9.80;;;5.20;;
65377;SDS011;51982;51.042;13.806;2022-12-07T04:02:08;7.68;;;4.88;;
65377;SDS011;51982;51.042;13.806;2022-12-07T04:04:37;8.57;;;5.13;;
65377;SDS011;51982;51.042;13.806;2022-12-07T04:07:02;11.18;;;5.80;;
65377;SDS011;51982;51.042;13.806;2022-12-07T04:09:28;9.05;;;4.75;;
65377;SDS011;51982;51.042;13.806;2022-12-07T04:11:53;11.60;;;5.53;;
65377;SDS011;51982;51.042;13.806;2022-12-07T04:14:18;8.13;;;4.72;;
65377;SDS011;51982;51.042;13.806;2022-12-07T04:16:51;7.85;;;4.90;;
65377;SDS011;51982;51.042;13.806;2022-12-07T04:19:19;8.20;;;4.95;;
65377;SDS011;51982;51.042;13.806;2022-12-07T04:21:46;8.13;;;5.20;;
65377;SDS011;51982;51.042;13.806;2022-12-07T04:24:12;12.02;;;5.78;;
65377;SDS011;51982;51.042;13.806;2022-12-07T04:26:38;8.48;;;4.80;;
65377;SDS011;51982;51.042;13.806;2022-12-07T04:29:03;8.93;;;5.32;;
65377;SDS011;51982;51.042;13.806;2022-12-07T04:31:29;8.82;;;4.75;;
65377;SDS011;51982;51.042;13.806;2022-12-07T04:33:54;9.10;;;5.20;;
65377;SDS011;51982;51.042;13.806;2022-12-07T04:36:19;8.77;;;4.63;;
65377;SDS011;51982;51.042;13.806;2022-12-07T04:38:45;9.35;;;5.10;;
65377;SDS011;51982;51.042;13.806;2022-12-07T04:41:11;9.23;;;4.82;;
65377;SDS011;51982;51.042;13.806;2022-12-07T04:43:36;9.43;;;5.32;;
65377;SDS011;51982;51.042;13.806;2022-12-07T04:46:02;8.07;;;4.72;;
65377;SDS011;51982;51.042;13.806;2022-12-07T04:48:27;9.48;;;5.55;;
65377;SDS011;51982;51.042;13.806;2022-12-07T04:50:53;10.48;;;5.28;;
65377;SDS011;51982;51.042;13.806;2022-12-07T04:53:18;10.45;;;4.97;;
65377;SDS011;51982;51.042;13.806;2022-12-07T04:55:44;8.27;;;5.05;;
65377;SDS011;51982;51.042;13.806;2022-12-07T04:58:10;10.43;;;5.70;;
65377;SDS011;51982;51.042;13.806;2022-12-07T05:00:36;11.50;;;4.80;;
65377;SDS011;51982;51.042;13.806;2022-12-07T05:03:01;9.38;;;5.28;;
65377;SDS011;51982;51.042;13.806;2022-12-07T05:05:26;12.10;;;5.50;;
65377;SDS011;51982;51.042;13.806;2022-12-07T05:07:52;11.50;;;5.57;;
65377;SDS011;51982;51.042;13.806;2022-12-07T05:10:17;9.45;;;4.85;;
65377;SDS011;51982;51.042;13.806;2022-12-07T05:12:42;10.27;;;5.22;;
65377;SDS011;51982;51.042;13.806;2022-12-07T05:15:08;10.23;;;5.82;;
65377;SDS011;51982;51.042;13.806;2022-12-07T05:17:33;8.18;;;5.18;;
65377;SDS011;51982;51.042;13.806;2022-12-07T05:19:59;8.55;;;5.07;;
65377;SDS011;51982;51.042;13.806;2022-12-07T05:22:24;9.70;;;5.35;;
65377;SDS011;51982;51.042;13.806;2022-12-07T05:24:53;9.65;;;5.05;;
65377;SDS011;51982;51.042;13.806;2022-12-07T05:27:21;11.68;;;4.72;;
65377;SDS011;51982;51.042;13.806;2022-12-07T05:29:46;10.05;;;5.10;;
65377;SDS011;51982;51.042;13.806;2022-12-07T05:32:12;9.30;;;5.10;;
65377;SDS011;51982;51.042;13.806;2022-12-07T05:34:37;10.27;;;4.78;;
65377;SDS011;51982;51.042;13.806;2022-12-07T05:37:02;10.52;;;5.35;;
65377;SDS011;51982;51.042;13.806;2022-12-07T05:39:28;11.20;;;5.22;;
65377;SDS011;51982;51.042;13.806;2022-12-07T05:41:53;8.52;;;5.22;;
65377;SDS011;51982;51.042;13.806;2022-12-07T05:44:36;9.18;;;5.20;;
65377;SDS011;51982;51.042;13.806;2022-12-07T05:47:02;10.13;;;5.25;;
65377;SDS011;51982;51.042;13.806;2022-12-07T05:49:28;7.90;;;4.65;;
65377;SDS011;51982;51.042;13.806;2022-12-07T05:51:53;8.75;;;4.57;;
65377;SDS011;51982;51.042;13.806;2022-12-07T05:54:18;11.02;;;4.95;;
65377;SDS011;51982;51.042;13.806;2022-12-07T05:56:43;8.40;;;4.93;;
65377;SDS011;51982;51.042;13.806;2022-12-07T05:59:09;8.98;;;4.70;;
65377;SDS011;51982;51.042;13.806;2022-12-07T06:04:21;9.00;;;5.13;;
65377;SDS011;51982;51.042;13.806;2022-12-07T06:06:47;9.85;;;4.88;;
65377;SDS011;51982;51.042;13.806;2022-12-07T06:09:13;8.93;;;4.88;;
65377;SDS011;51982;51.042;13.806;2022-12-07T06:11:39;8.55;;;4.57;;
65377;SDS011;51982;51.042;13.806;2022-12-07T06:14:23;12.88;;;5.60;;
65377;SDS011;51982;51.042;13.806;2022-12-07T06:16:48;11.20;;;5.68;;
65377;SDS011;51982;51.042;13.806;2022-12-07T06:19:14;12.75;;;5.15;;
65377;SDS011;51982;51.042;13.806;2022-12-07T06:21:39;9.75;;;4.38;;
65377;SDS011;51982;51.042;13.806;2022-12-07T06:24:05;8.00;;;4.65;;
65377;SDS011;51982;51.042;13.806;2022-12-07T06:26:31;7.88;;;4.68;;
65377;SDS011;51982;51.042;13.806;2022-12-07T06:28:56;8.38;;;4.97;;
65377;SDS011;51982;51.042;13.806;2022-12-07T06:31:21;7.97;;;4.80;;
65377;SDS011;51982;51.042;13.806;2022-12-07T06:33:47;8.35;;;4.13;;
65377;SDS011;51982;51.042;13.806;2022-12-07T06:36:12;12.73;;;5.10;;
65377;SDS011;51982;51.042;13.806;2022-12-07T06:38:38;7.45;;;3.85;;
65377;SDS011;51982;51.042;13.806;2022-12-07T06:41:03;7.15;;;3.17;;
65377;SDS011;51982;51.042;13.806;2022-12-07T06:43:29;3.83;;;2.42;;
65377;SDS011;51982;51.042;13.806;2022-12-07T06:45:54;5.38;;;2.85;;
65377;SDS011;51982;51.042;13.806;2022-12-07T06:48:19;5.07;;;2.53;;
65377;SDS011;51982;51.042;13.806;2022-12-07T06:50:45;5.05;;;2.75;;
65377;SDS011;51982;51.042;13.806;2022-12-07T06:53:11;4.85;;;2.63;;
65377;SDS011;51982;51.042;13.806;2022-12-07T06:55:36;3.53;;;2.47;;
65377;SDS011;51982;51.042;13.806;2022-12-07T06:58:02;4.22;;;2.70;;
65377;SDS011;51982;51.042;13.806;2022-12-07T07:00:27;5.50;;;2.58;;
65377;SDS011;51982;51.042;13.806;2022-12-07T07:02:53;4.15;;;2.60;;
65377;SDS011;51982;51.042;13.806;2022-12-07T07:05:18;4.05;;;2.38;;
65377;SDS011;51982;51.042;13.806;2022-12-07T07:07:43;5.53;;;2.20;;
65377;SDS011;51982;51.042;13.806;2022-12-07T07:10:08;4.03;;;2.55;;
65377;SDS011;51982;51.042;13.806;2022-12-07T07:12:34;4.75;;;2.72;;
65377;SDS011;51982;51.042;13.806;2022-12-07T07:14:59;5.15;;;2.35;;
65377;SDS011;51982;51.042;13.806;2022-12-07T07:17:24;4.70;;;2.50;;
65377;SDS011;51982;51.042;13.806;2022-12-07T07:19:50;3.95;;;2.67;;
65377;SDS011;51982;51.042;13.806;2022-12-07T07:22:15;4.60;;;2.63;;
65377;SDS011;51982;51.042;13.806;2022-12-07T07:24:40;3.83;;;2.63;;
65377;SDS011;51982;51.042;13.806;2022-12-07T07:27:05;5.18;;;2.65;;
65377;SDS011;51982;51.042;13.806;2022-12-07T07:29:31;4.80;;;2.85;;
65377;SDS011;51982;51.042;13.806;2022-12-07T07:31:56;3.47;;;2.35;;
65377;SDS011;51982;51.042;13.806;2022-12-07T07:34:21;5.25;;;2.83;;
65377;SDS011;51982;51.042;13.806;2022-12-07T07:36:46;5.25;;;2.97;;
65377;SDS011;51982;51.042;13.806;2022-12-07T07:39:12;4.55;;;2.88;;
65377;SDS011;51982;51.042;13.806;2022-12-07T07:41:37;4.25;;;2.60;;
65377;SDS011;51982;51.042;13.806;2022-12-07T07:44:03;4.15;;;2.63;;
65377;SDS011;51982;51.042;13.806;2022-12-07T07:46:28;5.88;;;2.78;;
65377;SDS011;51982;51.042;13.806;2022-12-07T07:48:53;4.80;;;2.65;;
65377;SDS011;51982;51.042;13.806;2022-12-07T07:51:19;5.22;;;2.55;;
65377;SDS011;51982;51.042;13.806;2022-12-07T07:53:44;7.25;;;3.42;;
65377;SDS011;51982;51.042;13.806;2022-12-07T07:56:09;4.93;;;2.78;;
65377;SDS011;51982;51.042;13.806;2022-12-07T07:58:34;4.13;;;2.50;;
65377;SDS011;51982;51.042;13.806;2022-12-07T08:01:04;7.07;;;2.97;;
65377;SDS011;51982;51.042;13.806;2022-12-07T08:03:30;4.55;;;3.10;;
65377;SDS011;51982;51.042;13.806;2022-12-07T08:05:56;4.05;;;2.72;;
65377;SDS011;51982;51.042;13.806;2022-12-07T08:08:21;4.97;;;3.20;;
65377;SDS011;51982;51.042;13.806;2022-12-07T08:10:46;5.25;;;3.35;;
65377;SDS011;51982;51.042;13.806;2022-12-07T08:13:13;4.60;;;2.65;;
65377;SDS011;51982;51.042;13.806;2022-12-07T08:15:41;5.10;;;3.25;;
65377;SDS011;51982;51.042;13.806;2022-12-07T08:18:08;6.55;;;3.08;;
65377;SDS011;51982;51.042;13.806;2022-12-07T08:20:34;7.80;;;3.30;;
65377;SDS011;51982;51.042;13.806;2022-12-07T08:23:00;4.35;;;3.08;;
65377;SDS011;51982;51.042;13.806;2022-12-07T08:25:26;5.32;;;3.15;;
65377;SDS011;51982;51.042;13.806;2022-12-07T08:27:52;7.47;;;3.28;;
65377;SDS011;51982;51.042;13.806;2022-12-07T08:30:18;7.22;;;3.50;;
65377;SDS011;51982;51.042;13.806;2022-12-07T08:32:44;6.82;;;3.03;;
65377;SDS011;51982;51.042;13.806;2022-12-07T08:35:10;4.88;;;2.88;;
65377;SDS011;51982;51.042;13.806;2022-12-07T08:37:36;5.65;;;3.38;;
65377;SDS011;51982;51.042;13.806;2022-12-07T08:40:02;4.93;;;3.65;;
65377;SDS011;51982;51.042;13.806;2022-12-07T08:42:28;3.95;;;2.63;;
65377;SDS011;51982;51.042;13.806;2022-12-07T08:45:02;6.38;;;3.63;;
65377;SDS011;51982;51.042;13.806;2022-12-07T08:47:29;6.60;;;3.58;;
65377;SDS011;51982;51.042;13.806;2022-12-07T08:49:54;5.75;;;3.45;;
65377;SDS011;51982;51.042;13.806;2022-12-07T08:52:19;6.03;;;3.88;;
65377;SDS011;51982;51.042;13.806;2022-12-07T08:54:45;6.70;;;3.67;;
65377;SDS011;51982;51.042;13.806;2022-12-07T08:57:10;6.95;;;3.65;;
65377;SDS011;51982;51.042;13.806;2022-12-07T08:59:36;5.50;;;3.42;;
65377;SDS011;51982;51.042;13.806;2022-12-07T09:02:02;5.68;;;3.63;;
65377;SDS011;51982;51.042;13.806;2022-12-07T09:04:29;6.45;;;3.58;;
65377;SDS011;51982;51.042;13.806;2022-12-07T09:06:54;5.90;;;3.35;;
65377;SDS011;51982;51.042;13.806;2022-12-07T09:09:20;5.72;;;3.40;;
65377;SDS011;51982;51.042;13.806;2022-12-07T09:11:45;4.80;;;3.20;;
65377;SDS011;51982;51.042;13.806;2022-12-07T09:14:11;6.55;;;3.45;;
65377;SDS011;51982;51.042;13.806;2022-12-07T09:16:37;6.25;;;3.55;;
65377;SDS011;51982;51.042;13.806;2022-12-07T09:19:02;3.78;;;2.60;;
65377;SDS011;51982;51.042;13.806;2022-12-07T09:21:28;5.53;;;3.42;;
65377;SDS011;51982;51.042;13.806;2022-12-07T09:23:53;6.10;;;3.38;;
65377;SDS011;51982;51.042;13.806;2022-12-07T09:26:18;5.72;;;3.28;;
65377;SDS011;51982;51.042;13.806;2022-12-07T09:28:43;6.75;;;3.15;;
65377;SDS011;51982;51.042;13.806;2022-12-07T09:31:09;6.18;;;3.30;;
65377;SDS011;51982;51.042;13.806;2022-12-07T09:33:34;4.32;;;2.95;;
65377;SDS011;51982;51.042;13.806;2022-12-07T09:35:59;7.00;;;3.35;;
65377;SDS011;51982;51.042;13.806;2022-12-07T09:38:25;6.22;;;3.40;;
65377;SDS011;51982;51.042;13.806;2022-12-07T09:40:51;5.20;;;2.67;;
65377;SDS011;51982;51.042;13.806;2022-12-07T09:43:18;7.50;;;3.15;;
65377;SDS011;51982;51.042;13.806;2022-12-07T09:45:46;6.55;;;3.00;;
65377;SDS011;51982;51.042;13.806;2022-12-07T09:48:21;5.43;;;2.60;;
65377;SDS011;51982;51.042;13.806;2022-12-07T09:51:01;5.47;;;3.00;;
65377;SDS011;51982;51.042;13.806;2022-12-07T09:53:35;4.63;;;3.05;;
65377;SDS011;51982;51.042;13.806;2022-12-07T09:56:03;9.68;;;3.17;;
65377;SDS011;51982;51.042;13.806;2022-12-07T09:58:32;5.82;;;2.90;;
65377;SDS011;51982;51.042;13.806;2022-12-07T10:00:59;4.88;;;2.80;;
65377;SDS011;51982;51.042;13.806;2022-12-07T10:03:36;4.20;;;2.58;;
65377;SDS011;51982;51.042;13.806;2022-12-07T10:06:04;3.58;;;2.22;;
65377;SDS011;51982;51.042;13.806;2022-12-07T10:08:33;4.75;;;2.47;;
65377;SDS011;51982;51.042;13.806;2022-12-07T10:10:59;7.30;;;3.00;;
65377;SDS011;51982;51.042;13.806;2022-12-07T10:13:35;3.88;;;2.65;;
65377;SDS011;51982;51.042;13.806;2022-12-07T10:18:49;3.90;;;2.35;;
65377;SDS011;51982;51.042;13.806;2022-12-07T10:21:16;4.93;;;2.80;;
65377;SDS011;51982;51.042;13.806;2022-12-07T10:24:05;4.15;;;2.13;;
65377;SDS011;51982;51.042;13.806;2022-12-07T10:29:20;4.43;;;2.40;;
65377;SDS011;51982;51.042;13.806;2022-12-07T10:32:05;5.15;;;2.60;;
65377;SDS011;51982;51.042;13.806;2022-12-07T10:40:24;5.22;;;2.50;;
65377;SDS011;51982;51.042;13.806;2022-12-07T10:45:57;4.50;;;2.42;;
65377;SDS011;51982;51.042;13.806;2022-12-07T10:49:00;3.67;;;2.10;;
65377;SDS011;51982;51.042;13.806;2022-12-07T10:54:50;5.43;;;2.50;;
65377;SDS011;51982;51.042;13.806;2022-12-07T10:57:47;8.95;;;3.03;;
65377;SDS011;51982;51.042;13.806;2022-12-07T11:00:23;6.18;;;3.05;;
65377;SDS011;51982;51.042;13.806;2022-12-07T11:05:34;4.20;;;2.53;;
65377;SDS011;51982;51.042;13.806;2022-12-07T11:14:00;6.03;;;2.63;;
65377;SDS011;51982;51.042;13.806;2022-12-07T11:21:54;5.07;;;2.50;;
65377;SDS011;51982;51.042;13.806;2022-12-07T11:24:25;6.32;;;2.83;;
65377;SDS011;51982;51.042;13.806;2022-12-07T11:27:14;7.72;;;2.80;;
65377;SDS011;51982;51.042;13.806;2022-12-07T11:30:11;4.63;;;2.65;;
65377;SDS011;51982;51.042;13.806;2022-12-07T11:35:35;3.28;;;1.92;;
65377;SDS011;51982;51.042;13.806;2022-12-07T11:40:48;4.30;;;2.65;;
65377;SDS011;51982;51.042;13.806;2022-12-07T11:43:26;5.18;;;3.22;;
65377;SDS011;51982;51.042;13.806;2022-12-07T11:45:57;4.65;;;1.95;;
65377;SDS011;51982;51.042;13.806;2022-12-07T11:48:28;5.90;;;2.72;;
65377;SDS011;51982;51.042;13.806;2022-12-07T11:50:59;5.90;;;3.33;;
65377;SDS011;51982;51.042;13.806;2022-12-07T11:53:35;5.45;;;2.92;;
65377;SDS011;51982;51.042;13.806;2022-12-07T11:56:13;7.13;;;3.20;;
65377;SDS011;51982;51.042;13.806;2022-12-07T11:58:46;4.68;;;2.70;;
65377;SDS011;51982;51.042;13.806;2022-12-07T12:01:24;5.75;;;3.13;;
65377;SDS011;51982;51.042;13.806;2022-12-07T12:06:33;8.05;;;3.33;;
65377;SDS011;51982;51.042;13.806;2022-12-07T12:25:56;8.40;;;3.85;;
65377;SDS011;51982;51.042;13.806;2022-12-07T12:29:19;9.45;;;4.00;;
65377;SDS011;51982;51.042;13.806;2022-12-07T12:33:47;10.77;;;4.20;;
65377;SDS011;51982;51.042;13.806;2022-12-07T12:44:01;5.75;;;3.30;;
65377;SDS011;51982;51.042;13.806;2022-12-07T12:51:49;5.70;;;2.28;;
65377;SDS011;51982;51.042;13.806;2022-12-07T12:54:29;5.80;;;2.38;;
65377;SDS011;51982;51.042;13.806;2022-12-07T12:59:42;4.05;;;1.30;;
65377;SDS011;51982;51.042;13.806;2022-12-07T13:02:28;2.58;;;1.20;;
65377;SDS011;51982;51.042;13.806;2022-12-07T13:31:36;0.70;;;0.50;;
65377;SDS011;51982;51.042;13.806;2022-12-07T13:34:26;1.23;;;0.90;;
65377;SDS011;51982;51.042;13.806;2022-12-07T13:36:57;1.38;;;1.00;;
65377;SDS011;51982;51.042;13.806;2022-12-07T13:39:26;2.35;;;1.08;;
65377;SDS011;51982;51.042;13.806;2022-12-07T13:41:55;3.30;;;1.20;;
65377;SDS011;51982;51.042;13.806;2022-12-07T13:44:22;3.25;;;1.40;;
65377;SDS011;51982;51.042;13.806;2022-12-07T13:51:47;2.70;;;1.65;;
65377;SDS011;51982;51.042;13.806;2022-12-07T13:54:14;2.88;;;1.55;;
65377;SDS011;51982;51.042;13.806;2022-12-07T13:56:40;2.35;;;1.60;;
65377;SDS011;51982;51.042;13.806;2022-12-07T13:59:19;3.38;;;1.70;;
65377;SDS011;51982;51.042;13.806;2022-12-07T14:01:47;3.35;;;1.70;;
65377;SDS011;51982;51.042;13.806;2022-12-07T14:04:33;3.72;;;1.83;;
65377;SDS011;51982;51.042;13.806;2022-12-07T14:07:01;3.40;;;1.90;;
65377;SDS011;51982;51.042;13.806;2022-12-07T14:09:52;5.90;;;2.10;;
65377;SDS011;51982;51.042;13.806;2022-12-07T14:12:19;6.30;;;2.10;;
65377;SDS011;51982;51.042;13.806;2022-12-07T14:14:46;5.38;;;1.85;;
65377;SDS011;51982;51.042;13.806;2022-12-07T14:17:21;6.00;;;2.00;;
65377;SDS011;51982;51.042;13.806;2022-12-07T14:22:19;4.53;;;2.40;;
65377;SDS011;51982;51.042;13.806;2022-12-07T14:24:50;4.70;;;2.60;;
65377;SDS011;51982;51.042;13.806;2022-12-07T14:27:23;6.05;;;2.45;;
65377;SDS011;51982;51.042;13.806;2022-12-07T14:29:50;3.80;;;2.80;;
65377;SDS011;51982;51.042;13.806;2022-12-07T14:32:20;8.15;;;2.75;;
65377;SDS011;51982;51.042;13.806;2022-12-07T14:34:58;7.40;;;3.05;;
65377;SDS011;51982;51.042;13.806;2022-12-07T14:37:27;7.25;;;2.80;;
65377;SDS011;51982;51.042;13.806;2022-12-07T14:39:54;6.75;;;3.53;;
65377;SDS011;51982;51.042;13.806;2022-12-07T14:42:20;6.45;;;3.70;;
65377;SDS011;51982;51.042;13.806;2022-12-07T14:44:48;8.05;;;3.50;;
65377;SDS011;51982;51.042;13.806;2022-12-07T14:47:13;6.45;;;3.33;;
65377;SDS011;51982;51.042;13.806;2022-12-07T14:49:38;5.72;;;3.53;;
65377;SDS011;51982;51.042;13.806;2022-12-07T14:52:04;9.18;;;3.95;;
65377;SDS011;51982;51.042;13.806;2022-12-07T14:54:31;7.10;;;3.95;;
65377;SDS011;51982;51.042;13.806;2022-12-07T14:56:57;6.28;;;3.65;;
65377;SDS011;51982;51.042;13.806;2022-12-07T14:59:23;6.90;;;3.75;;
65377;SDS011;51982;51.042;13.806;2022-12-07T15:01:48;9.35;;;4.43;;
65377;SDS011;51982;51.042;13.806;2022-12-07T15:04:13;5.72;;;3.47;;
65377;SDS011;51982;51.042;13.806;2022-12-07T15:06:39;6.28;;;4.07;;
65377;SDS011;51982;51.042;13.806;2022-12-07T15:09:04;9.88;;;3.75;;
65377;SDS011;51982;51.042;13.806;2022-12-07T15:11:30;5.30;;;3.47;;
65377;SDS011;51982;51.042;13.806;2022-12-07T15:13:55;8.20;;;3.72;;
65377;SDS011;51982;51.042;13.806;2022-12-07T15:16:33;5.20;;;3.40;;
65377;SDS011;51982;51.042;13.806;2022-12-07T15:18:59;9.70;;;4.00;;
65377;SDS011;51982;51.042;13.806;2022-12-07T15:21:24;7.45;;;3.15;;
65377;SDS011;51982;51.042;13.806;2022-12-07T15:23:51;5.57;;;2.63;;
65377;SDS011;51982;51.042;13.806;2022-12-07T15:26:17;4.45;;;2.35;;
65377;SDS011;51982;51.042;13.806;2022-12-07T15:28:42;7.28;;;2.65;;
65377;SDS011;51982;51.042;13.806;2022-12-07T15:31:11;5.15;;;2.47;;
65377;SDS011;51982;51.042;13.806;2022-12-07T15:33:38;3.50;;;2.17;;
65377;SDS011;51982;51.042;13.806;2022-12-07T15:36:03;4.68;;;2.13;;
65377;SDS011;51982;51.042;13.806;2022-12-07T15:38:28;5.75;;;2.33;;
65377;SDS011;51982;51.042;13.806;2022-12-07T15:40:55;3.00;;;1.90;;
65377;SDS011;51982;51.042;13.806;2022-12-07T15:43:20;2.67;;;1.98;;
65377;SDS011;51982;51.042;13.806;2022-12-07T15:46:04;6.40;;;2.47;;
65377;SDS011;51982;51.042;13.806;2022-12-07T15:48:30;7.47;;;2.13;;
65377;SDS011;51982;51.042;13.806;2022-12-07T15:51:05;3.60;;;1.60;;
65377;SDS011;51982;51.042;13.806;2022-12-07T15:53:32;4.10;;;1.92;;
65377;SDS011;51982;51.042;13.806;2022-12-07T15:55:58;5.40;;;2.65;;
65377;SDS011;51982;51.042;13.806;2022-12-07T15:58:23;5.07;;;2.85;;
65377;SDS011;51982;51.042;13.806;2022-12-07T16:00:49;10.50;;;2.95;;
65377;SDS011;51982;51.042;13.806;2022-12-07T16:03:14;5.63;;;2.55;;
65377;SDS011;51982;51.042;13.806;2022-12-07T16:05:39;3.70;;;1.95;;
65377;SDS011;51982;51.042;13.806;2022-12-07T16:08:05;3.95;;;2.05;;
65377;SDS011;51982;51.042;13.806;2022-12-07T16:10:30;4.25;;;2.00;;
65377;SDS011;51982;51.042;13.806;2022-12-07T16:12:55;4.57;;;2.40;;
65377;SDS011;51982;51.042;13.806;2022-12-07T16:15:21;4.78;;;2.20;;
65377;SDS011;51982;51.042;13.806;2022-12-07T16:17:46;5.15;;;2.63;;
65377;SDS011;51982;51.042;13.806;2022-12-07T16:20:12;6.25;;;2.67;;
65377;SDS011;51982;51.042;13.806;2022-12-07T16:22:37;7.65;;;3.25;;
65377;SDS011;51982;51.042;13.806;2022-12-07T16:25:02;6.20;;;2.85;;
65377;SDS011;51982;51.042;13.806;2022-12-07T16:27:27;5.78;;;2.40;;
65377;SDS011;51982;51.042;13.806;2022-12-07T16:29:53;5.45;;;2.63;;
65377;SDS011;51982;51.042;13.806;2022-12-07T16:32:18;5.20;;;2.88;;
65377;SDS011;51982;51.042;13.806;2022-12-07T16:34:43;5.40;;;2.75;;
65377;SDS011;51982;51.042;13.806;2022-12-07T16:37:26;6.45;;;2.92;;
65377;SDS011;51982;51.042;13.806;2022-12-07T16:40:12;6.10;;;3.15;;
65377;SDS011;51982;51.042;13.806;2022-12-07T16:42:55;6.65;;;3.00;;
65377;SDS011;51982;51.042;13.806;2022-12-07T16:45:21;7.37;;;3.30;;
65377;SDS011;51982;51.042;13.806;2022-12-07T16:47:46;7.72;;;3.30;;
65377;SDS011;51982;51.042;13.806;2022-12-07T16:50:11;6.15;;;2.70;;
65377;SDS011;51982;51.042;13.806;2022-12-07T16:52:36;5.85;;;2.72;;
65377;SDS011;51982;51.042;13.806;2022-12-07T16:55:04;4.35;;;2.33;;
65377;SDS011;51982;51.042;13.806;2022-12-07T16:57:30;5.15;;;2.45;;
65377;SDS011;51982;51.042;13.806;2022-12-07T16:59:56;3.00;;;1.88;;
65377;SDS011;51982;51.042;13.806;2022-12-07T17:02:22;6.07;;;2.00;;
65377;SDS011;51982;51.042;13.806;2022-12-07T17:04:47;5.03;;;1.55;;
65377;SDS011;51982;51.042;13.806;2022-12-07T17:07:15;2.25;;;1.70;;
65377;SDS011;51982;51.042;13.806;2022-12-07T17:09:41;3.55;;;1.80;;
65377;SDS011;51982;51.042;13.806;2022-12-07T17:12:06;4.35;;;1.80;;
65377;SDS011;51982;51.042;13.806;2022-12-07T17:14:31;4.90;;;1.70;;